Time;durP1;ratioP1;P1;durP2;ratioP2;P2;SDS_P1;SDS_P2;PMS_P1;PMS_P2;Temp;Humidity;BMP_temperature;BMP_pressure;BME280_temperature;BME280_humidity;BME280_pressure;Samples;Min_cycle;Max_cycle;Signal;HPM_P1;HPM_P2
2021/08/17 00:01:54;;;;;;;10.73;7.30;;;;;;;;;;5014038;28;20229;-75
2021/08/17 00:04:58;;;;;;;12.93;8.07;;;;;;;;;;5029751;28;20189;-74
2021/08/17 00:08:03;;;;;;;10.73;7.43;;;;;;;;;;5033615;28;20177;-74
2021/08/17 00:11:07;;;;;;;12.47;7.87;;;;;;;;;;5033649;28;20220;-74
2021/08/17 00:14:11;;;;;;;12.27;7.87;;;;;;;;;;5017610;28;20224;-75
2021/08/17 00:17:15;;;;;;;11.83;7.47;;;;;;;;;;5013777;28;20205;-74
2021/08/17 00:20:20;;;;;;;10.50;6.40;;;;;;;;;;5013700;28;20185;-74
2021/08/17 00:23:24;;;;;;;9.73;7.17;;;;;;;;;;5021688;28;20644;-74
2021/08/17 00:26:38;;;;;;;12.93;7.17;;;;;;;;;;5019288;28;20193;-74
2021/08/17 00:29:42;;;;;;;9.53;6.80;;;;;;;;;;5033413;28;20185;-74
2021/08/17 00:32:46;;;;;;;11.80;6.90;;;;;;;;;;5033173;28;20189;-75
2021/08/17 00:35:52;;;;;;;11.70;7.23;;;;;;;;;;5013904;28;20649;-75
2021/08/17 00:38:56;;;;;;;10.67;6.93;;;;;;;;;;5022981;28;20197;-75
2021/08/17 00:42:02;;;;;;;10.67;6.83;;;;;;;;;;5032287;28;20216;-75
2021/08/17 00:45:19;;;;;;;10.20;6.30;;;;;;;;;;5028179;28;20522;-74
2021/08/17 00:48:23;;;;;;;8.13;6.20;;;;;;;;;;5014054;28;20193;-75
2021/08/17 00:51:27;;;;;;;10.80;6.30;;;;;;;;;;5013345;28;20553;-75
2021/08/17 00:54:38;;;;;;;14.27;6.87;;;;;;;;;;5030054;28;20213;-75
2021/08/17 00:57:43;;;;;;;11.43;6.73;;;;;;;;;;5023087;28;20193;-75
2021/08/17 01:00:48;;;;;;;9.80;6.37;;;;;;;;;;5035597;28;20225;-75
2021/08/17 01:03:52;;;;;;;10.93;5.93;;;;;;;;;;5037141;28;20513;-74
2021/08/17 01:06:56;;;;;;;10.17;5.93;;;;;;;;;;5035906;28;20192;-74
2021/08/17 01:10:00;;;;;;;10.23;6.07;;;;;;;;;;5018133;28;20185;-74
2021/08/17 01:13:04;;;;;;;9.40;6.13;;;;;;;;;;5016720;28;20197;-74
2021/08/17 01:16:08;;;;;;;8.93;5.30;;;;;;;;;;5017750;28;20189;-75
2021/08/17 01:19:13;;;;;;;10.70;5.93;;;;;;;;;;5016975;28;20629;-74
2021/08/17 01:22:18;;;;;;;9.43;5.53;;;;;;;;;;5014688;28;20213;-75
2021/08/17 01:25:24;;;;;;;8.07;5.37;;;;;;;;;;5016761;28;20185;-75
2021/08/17 01:28:28;;;;;;;7.27;4.67;;;;;;;;;;5013025;28;20197;-75
2021/08/17 01:31:32;;;;;;;6.40;4.80;;;;;;;;;;5030860;28;20576;-75
2021/08/17 01:34:37;;;;;;;7.30;4.23;;;;;;;;;;5012139;28;20205;-75
2021/08/17 01:37:42;;;;;;;7.33;4.47;;;;;;;;;;5023482;28;20197;-75
2021/08/17 01:40:46;;;;;;;5.67;3.87;;;;;;;;;;5012706;28;20225;-76
2021/08/17 01:43:50;;;;;;;6.77;4.67;;;;;;;;;;5012993;28;20185;-75
2021/08/17 01:46:54;;;;;;;6.17;3.77;;;;;;;;;;5012528;28;20189;-75
2021/08/17 01:50:01;;;;;;;5.40;3.90;;;;;;;;;;5012625;28;20182;-75
2021/08/17 01:53:05;;;;;;;5.73;3.80;;;;;;;;;;5014736;28;20506;-75
2021/08/17 01:56:11;;;;;;;5.40;3.80;;;;;;;;;;5015887;28;20209;-75
2021/08/17 01:59:16;;;;;;;5.73;4.47;;;;;;;;;;5031179;28;20197;-75
2021/08/17 02:02:20;;;;;;;6.87;4.60;;;;;;;;;;5033246;28;20220;-75
2021/08/17 02:05:24;;;;;;;7.03;4.40;;;;;;;;;;5015810;28;20173;-75
2021/08/17 02:08:28;;;;;;;7.50;4.47;;;;;;;;;;5024663;28;20189;-75
2021/08/17 02:11:32;;;;;;;6.00;4.40;;;;;;;;;;5034661;28;20220;-75
2021/08/17 02:14:38;;;;;;;6.70;4.70;;;;;;;;;;5041288;28;20216;-75
2021/08/17 02:17:42;;;;;;;6.23;4.40;;;;;;;;;;5041283;28;20194;-75
2021/08/17 02:20:46;;;;;;;6.97;4.40;;;;;;;;;;5014573;28;20225;-75
2021/08/17 02:23:50;;;;;;;5.70;3.80;;;;;;;;;;5015355;28;20181;-74
2021/08/17 02:26:55;;;;;;;6.93;4.50;;;;;;;;;;5015274;28;20209;-75
2021/08/17 02:29:59;;;;;;;5.73;4.17;;;;;;;;;;5033715;28;20193;-75
2021/08/17 02:33:03;;;;;;;6.63;4.13;;;;;;;;;;5028135;28;20189;-75
2021/08/17 02:36:07;;;;;;;6.13;4.27;;;;;;;;;;5014837;28;20205;-74
2021/08/17 02:39:11;;;;;;;6.67;4.00;;;;;;;;;;5031283;28;20197;-75
2021/08/17 02:42:15;;;;;;;8.10;4.07;;;;;;;;;;5035053;28;20220;-75
2021/08/17 02:45:19;;;;;;;8.50;3.80;;;;;;;;;;5035166;28;20505;-75
2021/08/17 02:48:23;;;;;;;5.40;3.57;;;;;;;;;;5025006;28;20189;-75
2021/08/17 02:51:27;;;;;;;5.23;3.60;;;;;;;;;;5015336;28;20217;-75
2021/08/17 02:54:33;;;;;;;6.80;3.80;;;;;;;;;;5015034;28;20209;-75
2021/08/17 02:57:45;;;;;;;5.47;4.33;;;;;;;;;;5018116;28;20184;-75
2021/08/17 03:00:49;;;;;;;4.63;3.70;;;;;;;;;;5034480;28;20216;-75
2021/08/17 03:03:53;;;;;;;5.77;3.47;;;;;;;;;;5032497;28;20189;-74
2021/08/17 03:06:57;;;;;;;5.43;3.80;;;;;;;;;;5034337;28;20181;-75
2021/08/17 03:10:04;;;;;;;5.33;3.27;;;;;;;;;;5014923;28;20526;-75
2021/08/17 03:13:08;;;;;;;7.87;3.90;;;;;;;;;;5014610;28;20213;-75
2021/08/17 03:16:12;;;;;;;7.03;3.77;;;;;;;;;;5014085;28;20217;-74
2021/08/17 03:19:16;;;;;;;5.00;3.53;;;;;;;;;;5032104;28;20212;-75
2021/08/17 03:22:20;;;;;;;5.17;3.60;;;;;;;;;;5033695;28;20228;-74
2021/08/17 03:25:27;;;;;;;5.63;3.40;;;;;;;;;;5034258;28;20180;-75
2021/08/17 03:28:32;;;;;;;3.93;3.00;;;;;;;;;;5021284;28;20530;-75
2021/08/17 03:31:35;;;;;;;6.47;3.60;;;;;;;;;;5019597;28;20560;-75
2021/08/17 03:34:40;;;;;;;5.13;3.50;;;;;;;;;;5029672;28;20200;-75
2021/08/17 03:37:44;;;;;;;5.73;3.40;;;;;;;;;;5019085;28;20197;-75
2021/08/17 03:40:48;;;;;;;7.83;3.53;;;;;;;;;;5032881;28;20221;-75
2021/08/17 03:43:53;;;;;;;5.00;3.17;;;;;;;;;;5014560;28;20181;-74
2021/08/17 03:46:57;;;;;;;5.87;3.50;;;;;;;;;;5014223;28;20177;-74
2021/08/17 03:50:03;;;;;;;7.03;2.97;;;;;;;;;;5013380;28;20182;-74
2021/08/17 03:53:08;;;;;;;4.87;3.03;;;;;;;;;;5014424;28;20173;-74
2021/08/17 03:56:12;;;;;;;6.20;3.07;;;;;;;;;;5013869;28;20549;-75
2021/08/17 03:59:16;;;;;;;6.47;3.27;;;;;;;;;;5031076;28;20193;-75
2021/08/17 04:02:20;;;;;;;7.57;3.87;;;;;;;;;;5021342;28;20217;-74
2021/08/17 04:05:25;;;;;;;6.20;3.77;;;;;;;;;;5013947;28;20181;-74
2021/08/17 04:08:29;;;;;;;10.10;3.37;;;;;;;;;;5032026;28;20188;-74
2021/08/17 04:11:33;;;;;;;5.83;3.37;;;;;;;;;;5033005;28;20216;-74
2021/08/17 04:14:37;;;;;;;7.30;3.70;;;;;;;;;;5033759;28;20172;-74
2021/08/17 04:17:41;;;;;;;5.87;2.97;;;;;;;;;;5021315;28;20201;-74
2021/08/17 04:20:45;;;;;;;5.77;3.20;;;;;;;;;;5033477;28;20224;-74
2021/08/17 04:23:50;;;;;;;8.00;3.80;;;;;;;;;;5033215;28;20188;-74
2021/08/17 04:26:54;;;;;;;8.03;3.27;;;;;;;;;;5023575;28;20193;-73
2021/08/17 04:29:58;;;;;;;6.67;3.30;;;;;;;;;;5032625;28;20644;-74
2021/08/17 04:33:02;;;;;;;10.03;3.70;;;;;;;;;;5032675;28;20184;-74
2021/08/17 04:36:06;;;;;;;5.13;3.43;;;;;;;;;;5035754;28;20224;-73
2021/08/17 04:39:11;;;;;;;9.77;4.43;;;;;;;;;;5017627;28;20209;-74
2021/08/17 04:42:15;;;;;;;7.07;3.27;;;;;;;;;;5017716;28;20221;-74
2021/08/17 04:45:19;;;;;;;4.93;3.17;;;;;;;;;;5017270;28;20185;-74
2021/08/17 04:48:23;;;;;;;10.07;3.50;;;;;;;;;;5009183;28;20185;-73
2021/08/17 04:51:27;;;;;;;5.77;3.20;;;;;;;;;;5035635;28;20216;-74
2021/08/17 04:54:31;;;;;;;6.47;3.37;;;;;;;;;;5036132;28;20656;-75
2021/08/17 04:57:59;;;;;;;5.43;2.93;;;;;;;;;;5022978;28;20185;-74
2021/08/17 05:01:03;;;;;;;5.27;2.80;;;;;;;;;;5017216;28;20225;-74
2021/08/17 05:04:08;;;;;;;3.63;2.67;;;;;;;;;;5017489;28;20182;-74
2021/08/17 05:07:12;;;;;;;4.43;3.03;;;;;;;;;;5017386;28;20193;-74
2021/08/17 05:10:19;;;;;;;4.17;3.10;;;;;;;;;;5022230;28;20196;-74
2021/08/17 05:13:23;;;;;;;5.67;3.13;;;;;;;;;;5036497;28;20217;-74
2021/08/17 05:16:27;;;;;;;7.13;3.07;;;;;;;;;;5033411;28;20208;-73
2021/08/17 05:19:31;;;;;;;5.33;3.00;;;;;;;;;;5024955;28;20201;-74
2021/08/17 05:22:35;;;;;;;7.00;3.47;;;;;;;;;;5016683;28;20228;-74
2021/08/17 05:25:39;;;;;;;4.87;2.87;;;;;;;;;;5020319;28;20181;-73
2021/08/17 05:28:43;;;;;;;6.97;3.10;;;;;;;;;;5016975;28;20506;-74
2021/08/17 05:31:47;;;;;;;5.17;3.00;;;;;;;;;;5043331;28;20219;-73
2021/08/17 05:34:52;;;;;;;6.10;3.67;;;;;;;;;;5056303;28;20184;-74
2021/08/17 05:37:56;;;;;;;7.77;3.53;;;;;;;;;;5056477;28;20172;-73
2021/08/17 05:41:00;;;;;;;4.67;3.47;;;;;;;;;;5055859;28;20223;-74
2021/08/17 05:44:04;;;;;;;5.70;3.43;;;;;;;;;;5041453;28;20204;-73
2021/08/17 05:47:09;;;;;;;4.80;3.13;;;;;;;;;;5035351;28;20532;-74
2021/08/17 05:50:14;;;;;;;6.07;3.17;;;;;;;;;;5036092;28;20181;-74
2021/08/17 05:53:18;;;;;;;6.43;3.23;;;;;;;;;;5036044;28;20176;-73
2021/08/17 05:56:22;;;;;;;5.43;3.37;;;;;;;;;;5035718;28;20205;-74
2021/08/17 05:59:30;;;;;;;6.03;2.87;;;;;;;;;;5035889;28;20185;-74
2021/08/17 06:02:34;;;;;;;6.27;3.07;;;;;;;;;;5035524;28;20216;-74
2021/08/17 06:05:39;;;;;;;6.20;3.10;;;;;;;;;;5034733;28;20177;-74
2021/08/17 06:08:43;;;;;;;5.87;3.30;;;;;;;;;;5035667;28;20181;-74
2021/08/17 06:11:49;;;;;;;6.77;3.63;;;;;;;;;;5035321;28;20224;-74
2021/08/17 06:14:53;;;;;;;6.67;3.43;;;;;;;;;;5035556;28;20192;-74
2021/08/17 06:18:02;;;;;;;7.67;3.10;;;;;;;;;;5035792;28;20168;-73
2021/08/17 06:21:06;;;;;;;8.77;3.80;;;;;;;;;;5053648;28;20228;-73
2021/08/17 06:24:10;;;;;;;5.83;3.93;;;;;;;;;;5055497;28;20524;-72
2021/08/17 06:27:16;;;;;;;7.20;4.13;;;;;;;;;;5037276;28;20181;-72
2021/08/17 06:30:20;;;;;;;6.83;4.23;;;;;;;;;;5055262;28;20180;-73
2021/08/17 06:33:24;;;;;;;6.53;4.30;;;;;;;;;;5038523;28;20517;-73
2021/08/17 06:36:29;;;;;;;6.67;4.47;;;;;;;;;;5046505;28;20204;-73
2021/08/17 06:39:33;;;;;;;6.37;3.93;;;;;;;;;;5041927;28;20671;-73
2021/08/17 06:42:37;;;;;;;6.03;3.33;;;;;;;;;;5031615;28;20224;-73
2021/08/17 06:45:42;;;;;;;8.50;4.30;;;;;;;;;;5034549;28;20189;-73
2021/08/17 06:48:46;;;;;;;6.40;4.33;;;;;;;;;;5015196;28;20177;-73
2021/08/17 06:51:50;;;;;;;5.83;3.77;;;;;;;;;;5038973;28;20254;-73
2021/08/17 06:54:54;;;;;;;6.10;3.67;;;;;;;;;;5054462;28;20195;-73
2021/08/17 06:57:59;;;;;;;6.60;3.93;;;;;;;;;;5053597;28;20172;-73
2021/08/17 07:01:03;;;;;;;8.53;4.00;;;;;;;;;;5054490;28;20224;-73
2021/08/17 07:04:07;;;;;;;7.20;3.77;;;;;;;;;;5041523;28;20200;-73
2021/08/17 07:07:10;;;;;;;8.30;3.77;;;;;;;;;;5038337;28;20639;-73
2021/08/17 07:10:15;;;;;;;8.20;3.50;;;;;;;;;;5049917;28;20192;-73
2021/08/17 07:13:20;;;;;;;7.03;3.87;;;;;;;;;;5054284;28;20540;-73
2021/08/17 07:16:24;;;;;;;10.77;4.10;;;;;;;;;;5053835;28;20207;-73
2021/08/17 07:19:28;;;;;;;6.10;3.70;;;;;;;;;;5053234;28;20644;-73
2021/08/17 07:22:32;;;;;;;4.83;3.27;;;;;;;;;;5053935;28;20404;-73
2021/08/17 07:25:36;;;;;;;6.57;3.47;;;;;;;;;;5054142;28;20196;-73
2021/08/17 07:28:41;;;;;;;8.43;3.63;;;;;;;;;;5054102;28;20199;-73
2021/08/17 07:31:44;;;;;;;6.17;3.43;;;;;;;;;;5053748;28;20212;-73
2021/08/17 07:34:48;;;;;;;6.03;3.03;;;;;;;;;;5054144;28;20184;-73
2021/08/17 07:37:54;;;;;;;10.23;3.30;;;;;;;;;;5053909;28;20207;-73
2021/08/17 07:40:58;;;;;;;8.13;3.30;;;;;;;;;;5053710;28;20224;-72
2021/08/17 07:44:03;;;;;;;10.33;3.03;;;;;;;;;;5053947;28;20218;-73
2021/08/17 07:47:08;;;;;;;6.07;3.00;;;;;;;;;;5054159;28;20177;-73
2021/08/17 07:50:14;;;;;;;5.03;2.53;;;;;;;;;;5053268;28;20192;-73
2021/08/17 07:53:18;;;;;;;5.77;2.57;;;;;;;;;;5053644;28;20196;-73
2021/08/17 07:56:22;;;;;;;9.07;3.33;;;;;;;;;;5052850;28;20207;-72
2021/08/17 07:59:26;;;;;;;8.63;2.97;;;;;;;;;;5053696;28;20632;-73
2021/08/17 08:02:30;;;;;;;8.67;3.23;;;;;;;;;;5053944;28;20215;-73
2021/08/17 08:05:34;;;;;;;4.90;2.63;;;;;;;;;;5053662;28;20188;-73
2021/08/17 08:08:41;;;;;;;6.83;3.00;;;;;;;;;;5053125;28;20172;-73
2021/08/17 08:11:45;;;;;;;11.07;2.90;;;;;;;;;;5053301;28;20220;-73
2021/08/17 08:14:49;;;;;;;6.70;2.63;;;;;;;;;;5052846;28;20199;-72
2021/08/17 08:17:53;;;;;;;4.60;2.80;;;;;;;;;;5053188;28;20204;-73
2021/08/17 08:20:58;;;;;;;8.97;3.07;;;;;;;;;;5053670;28;20219;-73
2021/08/17 08:24:02;;;;;;;6.40;2.97;;;;;;;;;;5053448;28;20188;-73
2021/08/17 08:27:06;;;;;;;5.90;2.73;;;;;;;;;;5053406;28;20172;-73
2021/08/17 08:30:11;;;;;;;5.50;2.57;;;;;;;;;;5053310;28;20184;-73
2021/08/17 08:33:15;;;;;;;4.57;2.43;;;;;;;;;;5053158;28;20184;-73
2021/08/17 08:36:20;;;;;;;6.47;3.20;;;;;;;;;;5053443;28;20212;-73
2021/08/17 08:39:26;;;;;;;4.53;2.60;;;;;;;;;;5049908;28;20208;-72
2021/08/17 08:42:30;;;;;;;5.70;2.70;;;;;;;;;;5033128;28;20684;-73
2021/08/17 08:45:34;;;;;;;4.03;2.40;;;;;;;;;;5033490;28;20177;-73
2021/08/17 08:48:38;;;;;;;7.07;2.70;;;;;;;;;;5033019;28;20173;-73
2021/08/17 08:51:42;;;;;;;6.57;3.00;;;;;;;;;;5033477;28;20220;-73
2021/08/17 08:54:47;;;;;;;5.57;2.53;;;;;;;;;;5030809;28;20193;-73
2021/08/17 08:57:51;;;;;;;7.53;2.40;;;;;;;;;;5025682;28;20205;-73
2021/08/17 09:00:56;;;;;;;4.73;2.60;;;;;;;;;;5014325;28;20225;-73
2021/08/17 09:04:00;;;;;;;4.33;2.30;;;;;;;;;;5047569;28;20196;-73
2021/08/17 09:07:05;;;;;;;6.00;2.57;;;;;;;;;;5016273;28;20201;-74
2021/08/17 09:10:11;;;;;;;4.30;1.93;;;;;;;;;;5013337;28;20219;-74
2021/08/17 09:13:23;;;;;;;3.03;1.83;;;;;;;;;;5021089;28;20213;-73
2021/08/17 09:16:30;;;;;;;5.00;2.17;;;;;;;;;;5013235;28;20210;-73
2021/08/17 09:19:38;;;;;;;4.77;2.23;;;;;;;;;;5013063;28;20514;-73
2021/08/17 09:22:43;;;;;;;5.63;2.53;;;;;;;;;;5021133;28;20671;-75
2021/08/17 09:25:47;;;;;;;6.00;2.50;;;;;;;;;;5018458;28;20198;-75
2021/08/17 09:28:57;;;;;;;5.00;2.13;;;;;;;;;;5024808;28;20189;-75
2021/08/17 09:32:12;;;;;;;4.27;2.07;;;;;;;;;;5029049;28;20209;-75
2021/08/17 09:35:18;;;;;;;5.23;2.43;;;;;;;;;;5016667;28;20198;-74
2021/08/17 09:38:30;;;;;;;5.60;2.37;;;;;;;;;;5016156;28;20220;-75
2021/08/17 09:41:34;;;;;;;4.17;2.30;;;;;;;;;;5025195;28;20541;-75
2021/08/17 09:44:39;;;;;;;4.73;2.30;;;;;;;;;;5024182;28;20189;-75
2021/08/17 09:47:46;;;;;;;4.20;2.40;;;;;;;;;;5018960;28;20652;-77
2021/08/17 09:50:51;;;;;;;5.23;2.10;;;;;;;;;;5027902;28;20690;-77
2021/08/17 09:54:30;;;;;;;6.33;2.27;;;;;;;;;;5035215;28;20659;-77
2021/08/17 09:57:34;;;;;;;3.90;2.50;;;;;;;;;;5026428;28;20209;-78
2021/08/17 10:00:38;;;;;;;6.47;2.20;;;;;;;;;;5018900;28;20236;-77
2021/08/17 10:03:43;;;;;;;3.97;2.23;;;;;;;;;;5017841;28;20189;-77
2021/08/17 10:06:49;;;;;;;3.97;2.33;;;;;;;;;;5019084;28;20211;-77
2021/08/17 10:09:54;;;;;;;6.07;2.30;;;;;;;;;;5021898;28;20197;-77
2021/08/17 10:12:59;;;;;;;5.33;2.43;;;;;;;;;;5015307;28;20197;-77
2021/08/17 10:16:03;;;;;;;4.80;2.43;;;;;;;;;;5017390;28;20193;-77
2021/08/17 10:19:08;;;;;;;2.93;2.40;;;;;;;;;;5019639;28;20529;-77
2021/08/17 10:22:13;;;;;;;4.47;2.63;;;;;;;;;;5037384;28;20224;-78
2021/08/17 10:25:17;;;;;;;3.67;2.43;;;;;;;;;;5035175;28;20647;-78
2021/08/17 10:28:30;;;;;;;5.80;2.50;;;;;;;;;;5037773;28;20177;-77
2021/08/17 10:31:34;;;;;;;3.70;2.47;;;;;;;;;;5031188;28;20229;-78
2021/08/17 10:34:38;;;;;;;4.53;2.63;;;;;;;;;;5007265;28;20189;-77
2021/08/17 10:37:42;;;;;;;4.13;2.10;;;;;;;;;;5032186;28;20541;-77
2021/08/17 10:40:53;;;;;;;6.50;2.33;;;;;;;;;;5026498;28;20557;-77
2021/08/17 10:43:57;;;;;;;4.37;2.33;;;;;;;;;;5020896;28;20193;-77
2021/08/17 10:47:07;;;;;;;7.77;4.90;;;;;;;;;;5032602;28;20182;-77
2021/08/17 10:50:29;;;;;;;5.33;2.20;;;;;;;;;;5034183;28;20179;-77
2021/08/17 10:53:38;;;;;;;3.27;2.17;;;;;;;;;;5012919;28;20202;-77
2021/08/17 10:56:44;;;;;;;5.03;2.40;;;;;;;;;;5034232;28;20186;-77
2021/08/17 10:59:50;;;;;;;5.07;2.33;;;;;;;;;;5034857;28;20652;-77
2021/08/17 11:02:56;;;;;;;4.03;2.20;;;;;;;;;;5015045;28;20200;-76
2021/08/17 11:05:59;;;;;;;5.83;2.87;;;;;;;;;;5014639;28;20191;-77
2021/08/17 11:09:06;;;;;;;3.07;2.20;;;;;;;;;;5021652;28;20187;-76
2021/08/17 11:12:11;;;;;;;3.73;1.90;;;;;;;;;;5015589;28;20218;-77
2021/08/17 11:15:15;;;;;;;3.87;2.30;;;;;;;;;;5029261;28;20202;-77
2021/08/17 11:18:21;;;;;;;3.90;3.43;;;;;;;;;;5028848;28;20203;-77
2021/08/17 11:21:33;;;;;;;4.20;2.80;;;;;;;;;;5026461;28;20234;-77
2021/08/17 11:24:39;;;;;;;2.80;2.00;;;;;;;;;;5017645;28;20199;-77
2021/08/17 11:27:44;;;;;;;3.27;2.00;;;;;;;;;;5021595;28;20185;-77
2021/08/17 11:30:50;;;;;;;3.30;1.80;;;;;;;;;;5025074;28;20225;-77
2021/08/17 11:34:23;;;;;;;2.80;1.93;;;;;;;;;;5019340;28;20203;-78
2021/08/17 11:37:29;;;;;;;5.37;2.27;;;;;;;;;;5014853;28;20665;-77
2021/08/17 11:40:34;;;;;;;3.90;2.03;;;;;;;;;;5014458;28;20187;-77
2021/08/17 11:43:38;;;;;;;3.40;2.17;;;;;;;;;;5021489;28;20189;-77
2021/08/17 11:46:43;;;;;;;5.03;2.10;;;;;;;;;;5032675;28;20206;-77
2021/08/17 11:49:49;;;;;;;2.60;1.77;;;;;;;;;;5013905;28;20182;-77
2021/08/17 11:52:59;;;;;;;4.53;2.00;;;;;;;;;;5014870;28;20186;-77
2021/08/17 11:56:16;;;;;;;2.90;1.97;;;;;;;;;;5012994;28;20522;-77
2021/08/17 11:59:20;;;;;;;3.17;1.63;;;;;;;;;;5014031;28;20178;-77
2021/08/17 12:02:26;;;;;;;4.80;2.30;;;;;;;;;;5017658;28;20555;-76
2021/08/17 12:05:35;;;;;;;2.93;2.03;;;;;;;;;;5033690;28;20205;-77
2021/08/17 12:08:40;;;;;;;4.33;2.00;;;;;;;;;;5014599;28;20191;-76
2021/08/17 12:12:00;;;;;;;2.93;1.70;;;;;;;;;;5027205;28;20572;-76
2021/08/17 12:15:11;;;;;;;3.70;2.03;;;;;;;;;;5028080;28;20201;-77
2021/08/17 12:18:15;;;;;;;4.67;2.23;;;;;;;;;;5020226;28;20206;-77
2021/08/17 12:21:23;;;;;;;3.17;2.20;;;;;;;;;;5020796;28;20232;-77
2021/08/17 12:24:31;;;;;;;3.47;2.07;;;;;;;;;;5042761;28;20197;-77
2021/08/17 12:27:36;;;;;;;4.47;1.90;;;;;;;;;;5033467;28;20185;-76
2021/08/17 12:30:40;;;;;;;4.53;2.37;;;;;;;;;;5024525;28;20229;-77
2021/08/17 12:33:54;;;;;;;5.97;2.23;;;;;;;;;;5026956;28;20529;-77
2021/08/17 12:36:58;;;;;;;4.80;2.33;;;;;;;;;;5029374;28;20201;-77
2021/08/17 12:40:06;;;;;;;5.73;2.43;;;;;;;;;;5013411;28;20176;-77
2021/08/17 12:43:26;;;;;;;4.40;2.07;;;;;;;;;;5022858;28;20193;-77
2021/08/17 12:46:31;;;;;;;5.63;2.40;;;;;;;;;;5025637;28;20299;-77
2021/08/17 12:49:48;;;;;;;4.30;2.47;;;;;;;;;;5024449;28;20200;-78
2021/08/17 12:52:52;;;;;;;3.97;2.50;;;;;;;;;;5029144;28;20546;-77
2021/08/17 12:55:58;;;;;;;8.97;3.07;;;;;;;;;;5026333;28;20179;-77
2021/08/17 12:59:04;;;;;;;7.53;2.43;;;;;;;;;;5028625;28;20216;-77
2021/08/17 13:02:08;;;;;;;7.67;2.60;;;;;;;;;;5019705;28;20230;-77
2021/08/17 13:05:13;;;;;;;5.53;2.23;;;;;;;;;;5030286;28;20185;-78
2021/08/17 13:08:17;;;;;;;2.97;2.30;;;;;;;;;;5036288;28;20193;-77
2021/08/17 13:11:21;;;;;;;3.43;2.30;;;;;;;;;;5038022;28;20226;-77
2021/08/17 13:14:25;;;;;;;3.63;2.37;;;;;;;;;;5036844;28;20670;-77
2021/08/17 13:17:29;;;;;;;4.97;2.70;;;;;;;;;;5035660;28;20196;-76
2021/08/17 13:20:33;;;;;;;21.90;3.23;;;;;;;;;;5030537;28;20197;-77
2021/08/17 13:23:37;;;;;;;6.00;2.80;;;;;;;;;;5020400;28;20660;-77
2021/08/17 13:26:41;;;;;;;4.07;2.40;;;;;;;;;;5024977;28;20196;-77
2021/08/17 13:29:45;;;;;;;3.70;2.13;;;;;;;;;;5024633;28;20625;-77
2021/08/17 13:32:49;;;;;;;4.30;2.30;;;;;;;;;;5024574;28;20631;-77
2021/08/17 13:35:53;;;;;;;4.57;2.30;;;;;;;;;;5032472;28;20180;-76
2021/08/17 13:38:59;;;;;;;4.10;2.40;;;;;;;;;;5020510;28;20215;-76
2021/08/17 13:42:05;;;;;;;3.67;2.27;;;;;;;;;;5031452;28;20227;-77
2021/08/17 13:45:10;;;;;;;5.83;2.40;;;;;;;;;;5032659;28;20177;-76
2021/08/17 13:48:14;;;;;;;3.67;2.70;;;;;;;;;;5032567;28;20181;-77
2021/08/17 13:51:18;;;;;;;4.23;2.67;;;;;;;;;;5032193;28;20222;-77
2021/08/17 13:54:22;;;;;;;3.97;2.53;;;;;;;;;;5032288;28;20204;-76
2021/08/17 13:57:26;;;;;;;3.37;2.60;;;;;;;;;;5031921;28;20182;-78
2021/08/17 14:00:30;;;;;;;4.33;2.33;;;;;;;;;;5032285;28;20193;-77
2021/08/17 14:03:36;;;;;;;4.30;2.60;;;;;;;;;;5032317;28;20191;-77
2021/08/17 14:06:42;;;;;;;2.53;2.20;;;;;;;;;;5042172;28;20186;-77
2021/08/17 14:09:46;;;;;;;3.03;2.23;;;;;;;;;;5031637;28;20187;-77
2021/08/17 14:12:50;;;;;;;3.33;2.40;;;;;;;;;;5031203;28;20503;-77
2021/08/17 14:16:00;;;;;;;3.70;2.60;;;;;;;;;;5031799;28;20202;-77
2021/08/17 14:19:05;;;;;;;4.40;2.50;;;;;;;;;;5031523;28;20208;-77
2021/08/17 14:22:09;;;;;;;3.38;2.25;;;;;;;;;;5032922;28;20230;-78
2021/08/17 14:25:13;;;;;;;5.85;2.28;;;;;;;;;;5031932;28;20182;-77
2021/08/17 14:28:17;;;;;;;3.90;2.17;;;;;;;;;;5036572;28;20183;-77
2021/08/17 14:31:23;;;;;;;3.60;2.43;;;;;;;;;;5036982;28;20208;-77
2021/08/17 14:34:27;;;;;;;3.93;2.43;;;;;;;;;;5039948;28;20187;-77
2021/08/17 14:37:31;;;;;;;2.53;2.10;;;;;;;;;;5038105;28;20183;-77
2021/08/17 14:40:35;;;;;;;4.77;2.53;;;;;;;;;;5036932;28;20177;-77
2021/08/17 14:43:39;;;;;;;3.60;2.00;;;;;;;;;;5037572;28;20194;-78
2021/08/17 14:46:44;;;;;;;5.10;2.60;;;;;;;;;;5039401;28;20638;-77
2021/08/17 14:49:48;;;;;;;4.70;2.53;;;;;;;;;;5036918;28;20177;-77
2021/08/17 14:52:53;;;;;;;3.00;2.30;;;;;;;;;;5036659;28;20197;-77
2021/08/17 14:55:57;;;;;;;5.40;2.87;;;;;;;;;;5037563;28;20200;-78
2021/08/17 14:59:03;;;;;;;3.70;2.60;;;;;;;;;;5037722;28;20208;-78
2021/08/17 15:02:07;;;;;;;4.70;2.60;;;;;;;;;;5047907;28;20699;-77
2021/08/17 15:05:12;;;;;;;3.43;2.57;;;;;;;;;;5037602;28;20180;-76
2021/08/17 15:08:16;;;;;;;3.53;2.47;;;;;;;;;;5037164;28;20517;-78
2021/08/17 15:11:21;;;;;;;3.37;2.20;;;;;;;;;;5036263;28;20216;-78
2021/08/17 15:14:24;;;;;;;4.50;2.87;;;;;;;;;;5037000;28;20205;-77
2021/08/17 15:17:30;;;;;;;4.83;2.63;;;;;;;;;;5024373;28;20196;-77
2021/08/17 15:20:35;;;;;;;3.00;2.30;;;;;;;;;;5029013;28;20664;-77
2021/08/17 15:23:39;;;;;;;3.07;2.23;;;;;;;;;;5031884;28;20213;-80
2021/08/17 15:26:43;;;;;;;3.47;2.67;;;;;;;;;;5032409;28;20509;-77
2021/08/17 15:29:48;;;;;;;2.93;2.33;;;;;;;;;;5031746;28;20189;-77
2021/08/17 15:32:53;;;;;;;3.27;2.40;;;;;;;;;;5030933;28;20202;-77
2021/08/17 15:35:57;;;;;;;2.50;2.10;;;;;;;;;;5032439;28;20173;-77
2021/08/17 15:39:01;;;;;;;5.00;2.57;;;;;;;;;;5031523;28;20200;-77
2021/08/17 15:42:06;;;;;;;3.83;2.30;;;;;;;;;;5030906;28;20220;-77
2021/08/17 15:45:12;;;;;;;2.67;2.43;;;;;;;;;;5031857;28;20192;-77
2021/08/17 15:48:16;;;;;;;3.13;2.30;;;;;;;;;;5030987;28;20192;-77
2021/08/17 15:51:20;;;;;;;5.53;2.73;;;;;;;;;;5032572;28;20224;-77
2021/08/17 15:54:24;;;;;;;3.40;2.47;;;;;;;;;;5012360;28;20193;-78
2021/08/17 15:57:34;;;;;;;3.57;2.73;;;;;;;;;;5023058;28;20204;-78
2021/08/17 16:00:43;;;;;;;5.00;2.60;;;;;;;;;;5007312;28;20220;-77
2021/08/17 16:03:48;;;;;;;4.53;2.77;;;;;;;;;;5032428;28;20193;-79
2021/08/17 16:06:52;;;;;;;18.23;11.20;;;;;;;;;;5033259;28;20200;-78
2021/08/17 16:09:56;;;;;;;13.40;8.03;;;;;;;;;;5034937;28;20196;-79
2021/08/17 16:13:00;;;;;;;11.97;7.97;;;;;;;;;;5035442;28;20212;-78
2021/08/17 16:16:04;;;;;;;9.33;4.87;;;;;;;;;;5023963;28;20529;-79
2021/08/17 16:19:09;;;;;;;8.87;6.27;;;;;;;;;;5033577;28;20308;-79
2021/08/17 16:22:13;;;;;;;4.83;3.63;;;;;;;;;;5034334;28;20224;-79
2021/08/17 16:25:17;;;;;;;5.93;3.73;;;;;;;;;;5023723;28;20204;-79
2021/08/17 16:28:21;;;;;;;5.30;3.00;;;;;;;;;;5036207;28;20176;-79
2021/08/17 16:31:26;;;;;;;4.97;3.03;;;;;;;;;;5039324;28;20220;-79
2021/08/17 16:34:30;;;;;;;6.50;4.13;;;;;;;;;;5038604;28;20189;-78
2021/08/17 16:37:35;;;;;;;4.47;2.77;;;;;;;;;;5038140;28;20529;-78
2021/08/17 16:40:40;;;;;;;5.97;3.30;;;;;;;;;;5019557;28;20213;-79
2021/08/17 16:43:47;;;;;;;5.73;2.87;;;;;;;;;;5039709;28;20537;-78
2021/08/17 16:46:53;;;;;;;3.73;2.40;;;;;;;;;;5028308;28;20595;-77
2021/08/17 16:49:57;;;;;;;5.87;2.53;;;;;;;;;;5023341;28;20197;-78
2021/08/17 16:53:02;;;;;;;4.80;2.80;;;;;;;;;;5040721;28;20184;-77
2021/08/17 16:56:06;;;;;;;4.50;2.43;;;;;;;;;;5040151;28;20193;-78
2021/08/17 16:59:12;;;;;;;4.97;3.00;;;;;;;;;;5050657;28;20200;-77
2021/08/17 17:02:22;;;;;;;4.47;2.47;;;;;;;;;;5040196;28;20711;-78
2021/08/17 17:05:26;;;;;;;4.10;2.50;;;;;;;;;;5041095;28;20212;-77
2021/08/17 17:08:30;;;;;;;4.70;2.73;;;;;;;;;;5034810;28;20200;-78
2021/08/17 17:11:35;;;;;;;3.80;2.80;;;;;;;;;;5039853;28;20232;-78
2021/08/17 17:14:39;;;;;;;4.00;2.80;;;;;;;;;;5038507;28;20209;-79
2021/08/17 17:17:44;;;;;;;5.23;2.63;;;;;;;;;;5032949;28;20660;-79
2021/08/17 17:20:48;;;;;;;4.53;2.47;;;;;;;;;;5032642;28;20213;-79
2021/08/17 17:23:52;;;;;;;3.83;2.53;;;;;;;;;;5033685;28;20189;-79
2021/08/17 17:26:57;;;;;;;3.87;2.53;;;;;;;;;;5032653;28;20177;-79
2021/08/17 17:30:03;;;;;;;5.90;2.47;;;;;;;;;;5027004;28;20185;-79
2021/08/17 17:33:09;;;;;;;4.37;2.37;;;;;;;;;;5037076;28;20201;-79
2021/08/17 17:36:13;;;;;;;4.53;2.67;;;;;;;;;;5036624;28;20173;-79
2021/08/17 17:39:18;;;;;;;5.03;2.70;;;;;;;;;;5036026;28;20220;-79
2021/08/17 17:42:24;;;;;;;5.90;2.57;;;;;;;;;;5038924;28;20220;-79
2021/08/17 17:45:28;;;;;;;4.53;2.63;;;;;;;;;;5009429;28;20185;-79
2021/08/17 17:48:32;;;;;;;4.07;2.93;;;;;;;;;;5021338;28;20182;-79
2021/08/17 17:51:38;;;;;;;4.40;2.90;;;;;;;;;;5032127;28;20220;-78
2021/08/17 17:54:42;;;;;;;4.30;2.60;;;;;;;;;;5036516;28;20196;-79
2021/08/17 17:57:46;;;;;;;3.57;2.83;;;;;;;;;;5012038;28;20181;-78
2021/08/17 18:00:50;;;;;;;6.30;3.07;;;;;;;;;;5043222;28;20216;-78
2021/08/17 18:03:54;;;;;;;4.97;2.73;;;;;;;;;;5045017;28;20193;-79
2021/08/17 18:06:58;;;;;;;5.50;2.83;;;;;;;;;;5043584;28;20181;-79
2021/08/17 18:10:04;;;;;;;3.83;2.63;;;;;;;;;;5045978;28;20177;-78
2021/08/17 18:13:10;;;;;;;3.77;2.60;;;;;;;;;;5044335;28;20200;-78
2021/08/17 18:16:14;;;;;;;4.90;3.27;;;;;;;;;;5046604;28;20185;-78
2021/08/17 18:19:19;;;;;;;7.07;3.30;;;;;;;;;;5046930;28;20212;-79
2021/08/17 18:22:23;;;;;;;5.17;3.67;;;;;;;;;;5045381;28;20228;-78
2021/08/17 18:25:28;;;;;;;4.73;3.20;;;;;;;;;;5045121;28;20192;-78
2021/08/17 18:28:37;;;;;;;5.20;3.30;;;;;;;;;;5022711;28;20205;-78